sensor_id;sensor_type;location;lat;lon;timestamp;temperature;humidity
47618;DHT22;33336;36.728;-4.414;2023-08-17T00:04:19;28.60;99.90
47618;DHT22;33336;36.728;-4.414;2023-08-17T00:09:22;28.20;99.90
47618;DHT22;33336;36.728;-4.414;2023-08-17T00:14:25;27.30;99.90
47618;DHT22;33336;36.728;-4.414;2023-08-17T00:19:30;27.00;99.90
47618;DHT22;33336;36.728;-4.414;2023-08-17T00:24:33;27.00;99.90
47618;DHT22;33336;36.728;-4.414;2023-08-17T00:29:36;27.30;99.90
47618;DHT22;33336;36.728;-4.414;2023-08-17T00:34:40;27.70;99.30
47618;DHT22;33336;36.728;-4.414;2023-08-17T00:39:43;27.40;99.70
47618;DHT22;33336;36.728;-4.414;2023-08-17T00:44:46;27.00;99.90
47618;DHT22;33336;36.728;-4.414;2023-08-17T00:49:50;26.90;99.90
47618;DHT22;33336;36.728;-4.414;2023-08-17T00:54:55;27.00;99.60
47618;DHT22;33336;36.728;-4.414;2023-08-17T00:59:59;27.30;99.40
47618;DHT22;33336;36.728;-4.414;2023-08-17T01:05:05;27.50;97.30
47618;DHT22;33336;36.728;-4.414;2023-08-17T01:10:09;27.60;95.20
47618;DHT22;33336;36.728;-4.414;2023-08-17T01:15:15;27.80;95.30
47618;DHT22;33336;36.728;-4.414;2023-08-17T01:20:23;27.80;95.50
47618;DHT22;33336;36.728;-4.414;2023-08-17T01:25:28;27.60;95.40
47618;DHT22;33336;36.728;-4.414;2023-08-17T01:30:35;27.50;95.50
47618;DHT22;33336;36.728;-4.414;2023-08-17T01:35:45;27.60;95.30
47618;DHT22;33336;36.728;-4.414;2023-08-17T01:40:51;27.50;95.80
47618;DHT22;33336;36.728;-4.414;2023-08-17T01:45:55;27.30;96.20
47618;DHT22;33336;36.728;-4.414;2023-08-17T01:50:58;27.60;95.90
47618;DHT22;33336;36.728;-4.414;2023-08-17T01:56:02;27.60;95.70
47618;DHT22;33336;36.728;-4.414;2023-08-17T02:01:05;27.80;95.90
47618;DHT22;33336;36.728;-4.414;2023-08-17T02:06:08;27.80;95.90
47618;DHT22;33336;36.728;-4.414;2023-08-17T02:11:12;27.80;95.90
47618;DHT22;33336;36.728;-4.414;2023-08-17T02:16:16;27.70;96.20
47618;DHT22;33336;36.728;-4.414;2023-08-17T02:21:19;27.60;96.40
47618;DHT22;33336;36.728;-4.414;2023-08-17T02:26:23;27.40;96.80
47618;DHT22;33336;36.728;-4.414;2023-08-17T02:31:26;27.50;96.90
47618;DHT22;33336;36.728;-4.414;2023-08-17T02:36:29;27.30;97.40
47618;DHT22;33336;36.728;-4.414;2023-08-17T02:41:33;27.30;98.30
47618;DHT22;33336;36.728;-4.414;2023-08-17T02:46:37;27.50;98.60
47618;DHT22;33336;36.728;-4.414;2023-08-17T02:51:39;27.60;97.60
47618;DHT22;33336;36.728;-4.414;2023-08-17T02:56:46;27.50;97.50
47618;DHT22;33336;36.728;-4.414;2023-08-17T03:01:49;26.80;98.00
47618;DHT22;33336;36.728;-4.414;2023-08-17T03:06:53;26.80;97.10
47618;DHT22;33336;36.728;-4.414;2023-08-17T03:11:57;27.10;95.90
47618;DHT22;33336;36.728;-4.414;2023-08-17T03:17:00;27.00;95.80
47618;DHT22;33336;36.728;-4.414;2023-08-17T03:22:03;27.10;96.00
47618;DHT22;33336;36.728;-4.414;2023-08-17T03:27:07;27.20;96.00
47618;DHT22;33336;36.728;-4.414;2023-08-17T03:32:10;27.20;95.80
47618;DHT22;33336;36.728;-4.414;2023-08-17T03:37:13;27.20;95.60
47618;DHT22;33336;36.728;-4.414;2023-08-17T03:42:17;27.30;95.70
47618;DHT22;33336;36.728;-4.414;2023-08-17T03:47:20;26.70;96.20
47618;DHT22;33336;36.728;-4.414;2023-08-17T03:52:23;27.10;96.00
47618;DHT22;33336;36.728;-4.414;2023-08-17T03:57:27;27.20;96.00
47618;DHT22;33336;36.728;-4.414;2023-08-17T04:02:30;27.30;96.00
47618;DHT22;33336;36.728;-4.414;2023-08-17T04:07:33;27.20;95.50
47618;DHT22;33336;36.728;-4.414;2023-08-17T04:12:37;27.20;95.00
47618;DHT22;33336;36.728;-4.414;2023-08-17T04:17:41;27.30;95.00
47618;DHT22;33336;36.728;-4.414;2023-08-17T04:22:44;26.90;94.80
47618;DHT22;33336;36.728;-4.414;2023-08-17T04:27:48;26.80;94.90
47618;DHT22;33336;36.728;-4.414;2023-08-17T04:32:51;27.10;94.70
47618;DHT22;33336;36.728;-4.414;2023-08-17T04:37:54;26.90;94.60
47618;DHT22;33336;36.728;-4.414;2023-08-17T04:42:58;26.50;95.00
47618;DHT22;33336;36.728;-4.414;2023-08-17T04:48:01;26.50;95.20
47618;DHT22;33336;36.728;-4.414;2023-08-17T04:53:04;26.90;95.20
47618;DHT22;33336;36.728;-4.414;2023-08-17T04:58:08;26.90;94.90
47618;DHT22;33336;36.728;-4.414;2023-08-17T05:03:11;27.10;94.60
47618;DHT22;33336;36.728;-4.414;2023-08-17T05:08:15;27.10;94.70
47618;DHT22;33336;36.728;-4.414;2023-08-17T05:13:19;27.30;95.10
47618;DHT22;33336;36.728;-4.414;2023-08-17T05:18:23;27.10;95.10
47618;DHT22;33336;36.728;-4.414;2023-08-17T05:23:26;27.10;95.00
47618;DHT22;33336;36.728;-4.414;2023-08-17T05:28:30;27.20;95.00
47618;DHT22;33336;36.728;-4.414;2023-08-17T05:33:33;27.10;95.20
47618;DHT22;33336;36.728;-4.414;2023-08-17T05:38:38;26.90;95.30
47618;DHT22;33336;36.728;-4.414;2023-08-17T05:43:42;27.20;95.20
47618;DHT22;33336;36.728;-4.414;2023-08-17T05:48:45;27.20;95.10
47618;DHT22;33336;36.728;-4.414;2023-08-17T05:53:47;27.00;95.30
47618;DHT22;33336;36.728;-4.414;2023-08-17T05:58:52;27.00;95.40
47618;DHT22;33336;36.728;-4.414;2023-08-17T06:03:58;27.10;95.30
47618;DHT22;33336;36.728;-4.414;2023-08-17T06:09:01;27.10;95.30
47618;DHT22;33336;36.728;-4.414;2023-08-17T06:14:05;27.10;95.20
47618;DHT22;33336;36.728;-4.414;2023-08-17T06:19:09;27.20;95.00
47618;DHT22;33336;36.728;-4.414;2023-08-17T06:24:12;27.30;94.80
47618;DHT22;33336;36.728;-4.414;2023-08-17T06:29:16;27.40;94.60
47618;DHT22;33336;36.728;-4.414;2023-08-17T06:34:19;27.20;94.40
47618;DHT22;33336;36.728;-4.414;2023-08-17T06:39:23;27.50;94.20
47618;DHT22;33336;36.728;-4.414;2023-08-17T06:44:27;27.70;94.10
47618;DHT22;33336;36.728;-4.414;2023-08-17T06:49:31;27.90;93.50
47618;DHT22;33336;36.728;-4.414;2023-08-17T06:54:34;27.60;93.40
47618;DHT22;33336;36.728;-4.414;2023-08-17T06:59:38;28.00;93.20
47618;DHT22;33336;36.728;-4.414;2023-08-17T07:04:41;27.50;93.00
47618;DHT22;33336;36.728;-4.414;2023-08-17T07:09:44;27.10;93.60
47618;DHT22;33336;36.728;-4.414;2023-08-17T07:14:49;27.70;93.80
47618;DHT22;33336;36.728;-4.414;2023-08-17T07:19:52;28.10;94.30
47618;DHT22;33336;36.728;-4.414;2023-08-17T07:24:56;28.40;95.10
47618;DHT22;33336;36.728;-4.414;2023-08-17T07:30:00;28.30;95.80
47618;DHT22;33336;36.728;-4.414;2023-08-17T07:35:03;28.50;95.50
47618;DHT22;33336;36.728;-4.414;2023-08-17T07:40:07;27.30;95.80
47618;DHT22;33336;36.728;-4.414;2023-08-17T07:45:12;26.90;98.40
47618;DHT22;33336;36.728;-4.414;2023-08-17T07:50:15;26.70;99.90
47618;DHT22;33336;36.728;-4.414;2023-08-17T07:55:18;26.60;99.90
47618;DHT22;33336;36.728;-4.414;2023-08-17T08:00:22;26.90;99.90
47618;DHT22;33336;36.728;-4.414;2023-08-17T08:05:26;26.90;99.90
47618;DHT22;33336;36.728;-4.414;2023-08-17T08:10:29;26.80;99.90
47618;DHT22;33336;36.728;-4.414;2023-08-17T08:15:33;27.50;99.90
47618;DHT22;33336;36.728;-4.414;2023-08-17T08:20:36;27.40;99.90
47618;DHT22;33336;36.728;-4.414;2023-08-17T08:25:39;27.90;99.90
47618;DHT22;33336;36.728;-4.414;2023-08-17T08:30:43;28.30;99.90
47618;DHT22;33336;36.728;-4.414;2023-08-17T08:35:47;27.70;99.90
47618;DHT22;33336;36.728;-4.414;2023-08-17T08:40:50;27.90;99.90
47618;DHT22;33336;36.728;-4.414;2023-08-17T08:45:54;27.80;99.90
47618;DHT22;33336;36.728;-4.414;2023-08-17T08:51:00;28.00;99.90
47618;DHT22;33336;36.728;-4.414;2023-08-17T08:56:03;28.10;99.90
47618;DHT22;33336;36.728;-4.414;2023-08-17T09:01:08;27.70;99.90
47618;DHT22;33336;36.728;-4.414;2023-08-17T09:06:12;27.80;99.90
47618;DHT22;33336;36.728;-4.414;2023-08-17T09:11:16;27.40;99.90
47618;DHT22;33336;36.728;-4.414;2023-08-17T09:16:21;27.50;99.90
47618;DHT22;33336;36.728;-4.414;2023-08-17T09:21:24;28.20;99.90
47618;DHT22;33336;36.728;-4.414;2023-08-17T09:26:31;28.70;99.90
47618;DHT22;33336;36.728;-4.414;2023-08-17T09:31:35;29.20;99.90
47618;DHT22;33336;36.728;-4.414;2023-08-17T09:36:39;29.40;99.90
47618;DHT22;33336;36.728;-4.414;2023-08-17T09:41:42;29.70;99.90
47618;DHT22;33336;36.728;-4.414;2023-08-17T09:46:47;29.30;99.90
47618;DHT22;33336;36.728;-4.414;2023-08-17T09:51:50;28.70;99.90
47618;DHT22;33336;36.728;-4.414;2023-08-17T09:56:54;28.70;99.90
47618;DHT22;33336;36.728;-4.414;2023-08-17T10:01:59;28.70;99.90
47618;DHT22;33336;36.728;-4.414;2023-08-17T10:07:04;28.90;99.90
47618;DHT22;33336;36.728;-4.414;2023-08-17T10:12:10;28.80;99.90
47618;DHT22;33336;36.728;-4.414;2023-08-17T10:17:17;29.10;99.90
47618;DHT22;33336;36.728;-4.414;2023-08-17T10:22:27;28.90;99.90
47618;DHT22;33336;36.728;-4.414;2023-08-17T10:27:35;29.20;99.90
47618;DHT22;33336;36.728;-4.414;2023-08-17T10:32:40;29.50;99.90
47618;DHT22;33336;36.728;-4.414;2023-08-17T10:37:47;29.20;99.90
47618;DHT22;33336;36.728;-4.414;2023-08-17T10:42:54;29.50;99.90
47618;DHT22;33336;36.728;-4.414;2023-08-17T10:48:26;29.10;99.90
47618;DHT22;33336;36.728;-4.414;2023-08-17T10:53:54;29.00;99.90
47618;DHT22;33336;36.728;-4.414;2023-08-17T10:59:01;29.30;99.40
47618;DHT22;33336;36.728;-4.414;2023-08-17T11:04:15;29.30;99.70
47618;DHT22;33336;36.728;-4.414;2023-08-17T11:09:22;29.30;99.80
47618;DHT22;33336;36.728;-4.414;2023-08-17T11:14:25;30.40;98.90
47618;DHT22;33336;36.728;-4.414;2023-08-17T11:19:29;30.40;96.70
47618;DHT22;33336;36.728;-4.414;2023-08-17T11:24:32;30.00;96.70
47618;DHT22;33336;36.728;-4.414;2023-08-17T11:29:42;30.70;96.30
47618;DHT22;33336;36.728;-4.414;2023-08-17T11:34:46;31.30;96.10
47618;DHT22;33336;36.728;-4.414;2023-08-17T11:39:50;32.10;95.60
47618;DHT22;33336;36.728;-4.414;2023-08-17T11:44:52;31.60;97.90
47618;DHT22;33336;36.728;-4.414;2023-08-17T11:50:00;32.20;96.30
47618;DHT22;33336;36.728;-4.414;2023-08-17T11:55:04;31.90;98.50
47618;DHT22;33336;36.728;-4.414;2023-08-17T12:00:08;30.70;99.90
47618;DHT22;33336;36.728;-4.414;2023-08-17T12:05:12;30.80;99.90
47618;DHT22;33336;36.728;-4.414;2023-08-17T12:10:17;30.80;99.90
47618;DHT22;33336;36.728;-4.414;2023-08-17T12:15:20;31.80;99.90
47618;DHT22;33336;36.728;-4.414;2023-08-17T12:20:25;31.60;99.90
47618;DHT22;33336;36.728;-4.414;2023-08-17T12:25:28;32.20;98.40
47618;DHT22;33336;36.728;-4.414;2023-08-17T12:30:32;32.20;98.30
47618;DHT22;33336;36.728;-4.414;2023-08-17T12:35:38;32.60;97.10
47618;DHT22;33336;36.728;-4.414;2023-08-17T12:40:43;32.30;97.50
47618;DHT22;33336;36.728;-4.414;2023-08-17T12:45:45;32.60;96.80
47618;DHT22;33336;36.728;-4.414;2023-08-17T12:50:50;32.50;97.60
47618;DHT22;33336;36.728;-4.414;2023-08-17T12:55:53;32.40;97.10
47618;DHT22;33336;36.728;-4.414;2023-08-17T13:00:57;32.60;97.90
47618;DHT22;33336;36.728;-4.414;2023-08-17T13:06:01;32.80;97.20
47618;DHT22;33336;36.728;-4.414;2023-08-17T13:11:05;33.20;94.10
47618;DHT22;33336;36.728;-4.414;2023-08-17T13:16:07;33.70;94.60
47618;DHT22;33336;36.728;-4.414;2023-08-17T13:21:14;33.20;94.10
47618;DHT22;33336;36.728;-4.414;2023-08-17T13:26:20;33.70;93.60
47618;DHT22;33336;36.728;-4.414;2023-08-17T13:31:25;34.20;91.20
47618;DHT22;33336;36.728;-4.414;2023-08-17T13:36:29;34.00;89.50
47618;DHT22;33336;36.728;-4.414;2023-08-17T13:41:33;34.80;87.60
47618;DHT22;33336;36.728;-4.414;2023-08-17T13:46:35;34.50;83.00
47618;DHT22;33336;36.728;-4.414;2023-08-17T13:51:40;35.10;83.00
47618;DHT22;33336;36.728;-4.414;2023-08-17T13:56:43;35.90;83.20
47618;DHT22;33336;36.728;-4.414;2023-08-17T14:01:47;35.50;80.10
47618;DHT22;33336;36.728;-4.414;2023-08-17T14:06:51;35.50;81.40
47618;DHT22;33336;36.728;-4.414;2023-08-17T14:11:55;35.70;80.20
47618;DHT22;33336;36.728;-4.414;2023-08-17T14:16:57;35.80;80.20
47618;DHT22;33336;36.728;-4.414;2023-08-17T14:22:02;34.80;81.50
47618;DHT22;33336;36.728;-4.414;2023-08-17T14:27:05;35.50;84.50
47618;DHT22;33336;36.728;-4.414;2023-08-17T14:32:09;36.10;85.90
47618;DHT22;33336;36.728;-4.414;2023-08-17T14:37:13;36.20;86.00
47618;DHT22;33336;36.728;-4.414;2023-08-17T14:42:17;36.80;85.50
47618;DHT22;33336;36.728;-4.414;2023-08-17T14:47:19;36.70;84.50
47618;DHT22;33336;36.728;-4.414;2023-08-17T14:52:25;36.60;85.90
47618;DHT22;33336;36.728;-4.414;2023-08-17T14:57:28;37.20;85.10
47618;DHT22;33336;36.728;-4.414;2023-08-17T15:02:31;38.00;84.00
47618;DHT22;33336;36.728;-4.414;2023-08-17T15:07:35;37.80;81.40
47618;DHT22;33336;36.728;-4.414;2023-08-17T15:12:39;37.00;83.30
47618;DHT22;33336;36.728;-4.414;2023-08-17T15:17:41;37.40;81.90
47618;DHT22;33336;36.728;-4.414;2023-08-17T15:22:46;36.10;82.50
47618;DHT22;33336;36.728;-4.414;2023-08-17T15:27:49;37.60;82.30
47618;DHT22;33336;36.728;-4.414;2023-08-17T15:32:53;37.00;80.60
47618;DHT22;33336;36.728;-4.414;2023-08-17T15:37:57;37.30;80.50
47618;DHT22;33336;36.728;-4.414;2023-08-17T15:43:00;37.10;80.50
47618;DHT22;33336;36.728;-4.414;2023-08-17T15:48:02;37.30;81.70
47618;DHT22;33336;36.728;-4.414;2023-08-17T15:53:07;37.00;82.30
47618;DHT22;33336;36.728;-4.414;2023-08-17T15:58:11;38.60;83.40
47618;DHT22;33336;36.728;-4.414;2023-08-17T16:03:14;38.30;81.80
47618;DHT22;33336;36.728;-4.414;2023-08-17T16:08:18;39.40;82.10
47618;DHT22;33336;36.728;-4.414;2023-08-17T16:13:21;41.10;80.40
47618;DHT22;33336;36.728;-4.414;2023-08-17T16:18:24;41.70;80.40
47618;DHT22;33336;36.728;-4.414;2023-08-17T16:23:28;41.90;78.40
47618;DHT22;33336;36.728;-4.414;2023-08-17T16:28:31;43.10;77.70
47618;DHT22;33336;36.728;-4.414;2023-08-17T16:33:35;43.60;76.50
47618;DHT22;33336;36.728;-4.414;2023-08-17T16:38:39;44.20;75.00
47618;DHT22;33336;36.728;-4.414;2023-08-17T16:43:41;44.60;74.30
47618;DHT22;33336;36.728;-4.414;2023-08-17T16:48:47;44.90;73.30
47618;DHT22;33336;36.728;-4.414;2023-08-17T16:53:52;45.40;72.50
47618;DHT22;33336;36.728;-4.414;2023-08-17T16:58:55;45.90;70.80
47618;DHT22;33336;36.728;-4.414;2023-08-17T17:03:58;46.30;69.70
47618;DHT22;33336;36.728;-4.414;2023-08-17T17:09:03;46.80;68.40
47618;DHT22;33336;36.728;-4.414;2023-08-17T17:14:06;47.50;66.70
47618;DHT22;33336;36.728;-4.414;2023-08-17T17:19:10;48.50;66.60
47618;DHT22;33336;36.728;-4.414;2023-08-17T17:24:14;49.30;64.60
47618;DHT22;33336;36.728;-4.414;2023-08-17T17:29:18;50.30;64.10
47618;DHT22;33336;36.728;-4.414;2023-08-17T17:34:21;48.30;62.40
47618;DHT22;33336;36.728;-4.414;2023-08-17T17:39:26;47.20;62.00
47618;DHT22;33336;36.728;-4.414;2023-08-17T17:44:29;49.10;61.80
47618;DHT22;33336;36.728;-4.414;2023-08-17T17:49:31;48.90;62.20
47618;DHT22;33336;36.728;-4.414;2023-08-17T17:54:36;49.10;61.10
47618;DHT22;33336;36.728;-4.414;2023-08-17T17:59:40;48.50;60.30
47618;DHT22;33336;36.728;-4.414;2023-08-17T18:04:46;49.40;60.90
47618;DHT22;33336;36.728;-4.414;2023-08-17T18:09:51;49.40;59.30
47618;DHT22;33336;36.728;-4.414;2023-08-17T18:14:56;49.90;59.10
47618;DHT22;33336;36.728;-4.414;2023-08-17T18:19:59;49.90;59.70
47618;DHT22;33336;36.728;-4.414;2023-08-17T18:25:05;48.60;59.50
47618;DHT22;33336;36.728;-4.414;2023-08-17T18:30:10;47.70;59.50
47618;DHT22;33336;36.728;-4.414;2023-08-17T18:35:13;47.20;59.60
47618;DHT22;33336;36.728;-4.414;2023-08-17T18:40:21;46.30;59.90
47618;DHT22;33336;36.728;-4.414;2023-08-17T18:45:24;45.10;60.40
47618;DHT22;33336;36.728;-4.414;2023-08-17T18:50:27;44.50;62.20
47618;DHT22;33336;36.728;-4.414;2023-08-17T18:55:33;43.20;63.70
47618;DHT22;33336;36.728;-4.414;2023-08-17T19:00:37;41.10;65.80
47618;DHT22;33336;36.728;-4.414;2023-08-17T19:05:40;39.70;67.80
47618;DHT22;33336;36.728;-4.414;2023-08-17T19:10:45;38.70;68.90
47618;DHT22;33336;36.728;-4.414;2023-08-17T19:15:48;38.20;71.00
47618;DHT22;33336;36.728;-4.414;2023-08-17T19:20:51;38.00;71.70
47618;DHT22;33336;36.728;-4.414;2023-08-17T19:25:56;37.50;71.90
47618;DHT22;33336;36.728;-4.414;2023-08-17T19:30:59;36.70;72.50
47618;DHT22;33336;36.728;-4.414;2023-08-17T19:36:03;36.60;73.30
47618;DHT22;33336;36.728;-4.414;2023-08-17T19:41:08;36.30;73.10
47618;DHT22;33336;36.728;-4.414;2023-08-17T19:46:11;36.40;72.60
47618;DHT22;33336;36.728;-4.414;2023-08-17T19:51:13;36.10;73.60
47618;DHT22;33336;36.728;-4.414;2023-08-17T19:56:18;35.80;73.80
47618;DHT22;33336;36.728;-4.414;2023-08-17T20:01:21;35.80;73.50
47618;DHT22;33336;36.728;-4.414;2023-08-17T20:06:24;35.30;74.20
47618;DHT22;33336;36.728;-4.414;2023-08-17T20:11:29;34.90;76.60
47618;DHT22;33336;36.728;-4.414;2023-08-17T20:16:32;34.80;78.30
47618;DHT22;33336;36.728;-4.414;2023-08-17T20:21:35;34.50;82.60
47618;DHT22;33336;36.728;-4.414;2023-08-17T20:26:40;33.40;89.90
47618;DHT22;33336;36.728;-4.414;2023-08-17T20:31:43;33.50;90.80
47618;DHT22;33336;36.728;-4.414;2023-08-17T20:36:46;33.30;91.40
47618;DHT22;33336;36.728;-4.414;2023-08-17T20:41:53;33.30;91.50
47618;DHT22;33336;36.728;-4.414;2023-08-17T20:46:55;33.30;92.60
47618;DHT22;33336;36.728;-4.414;2023-08-17T20:51:58;33.10;92.70
47618;DHT22;33336;36.728;-4.414;2023-08-17T20:57:03;33.00;92.70
47618;DHT22;33336;36.728;-4.414;2023-08-17T21:02:06;32.30;94.00
47618;DHT22;33336;36.728;-4.414;2023-08-17T21:07:09;31.90;94.40
47618;DHT22;33336;36.728;-4.414;2023-08-17T21:12:14;31.40;95.20
47618;DHT22;33336;36.728;-4.414;2023-08-17T21:17:17;31.30;95.60
47618;DHT22;33336;36.728;-4.414;2023-08-17T21:22:20;30.90;96.30
47618;DHT22;33336;36.728;-4.414;2023-08-17T21:27:25;30.90;96.70
47618;DHT22;33336;36.728;-4.414;2023-08-17T21:32:28;31.00;96.70
47618;DHT22;33336;36.728;-4.414;2023-08-17T21:37:31;31.00;97.00
47618;DHT22;33336;36.728;-4.414;2023-08-17T21:42:36;31.00;97.70
47618;DHT22;33336;36.728;-4.414;2023-08-17T21:47:39;31.20;97.40
47618;DHT22;33336;36.728;-4.414;2023-08-17T21:52:42;31.40;97.20
47618;DHT22;33336;36.728;-4.414;2023-08-17T21:57:47;31.10;97.80
47618;DHT22;33336;36.728;-4.414;2023-08-17T22:02:50;31.10;97.90
47618;DHT22;33336;36.728;-4.414;2023-08-17T22:07:53;31.40;97.40
47618;DHT22;33336;36.728;-4.414;2023-08-17T22:12:58;31.10;97.70
47618;DHT22;33336;36.728;-4.414;2023-08-17T22:18:00;31.10;97.70
47618;DHT22;33336;36.728;-4.414;2023-08-17T22:23:04;31.30;97.30
47618;DHT22;33336;36.728;-4.414;2023-08-17T22:28:08;31.40;97.70
47618;DHT22;33336;36.728;-4.414;2023-08-17T22:33:11;31.40;97.80
47618;DHT22;33336;36.728;-4.414;2023-08-17T22:38:15;31.00;98.10
47618;DHT22;33336;36.728;-4.414;2023-08-17T22:43:20;31.30;97.60
47618;DHT22;33336;36.728;-4.414;2023-08-17T22:48:23;31.10;97.80
47618;DHT22;33336;36.728;-4.414;2023-08-17T22:53:25;31.10;97.90
47618;DHT22;33336;36.728;-4.414;2023-08-17T22:58:30;30.90;97.80
47618;DHT22;33336;36.728;-4.414;2023-08-17T23:03:32;30.70;98.30
47618;DHT22;33336;36.728;-4.414;2023-08-17T23:08:35;30.60;98.60
47618;DHT22;33336;36.728;-4.414;2023-08-17T23:13:39;30.90;97.90
47618;DHT22;33336;36.728;-4.414;2023-08-17T23:18:42;31.10;97.60
47618;DHT22;33336;36.728;-4.414;2023-08-17T23:23:45;31.10;97.40
47618;DHT22;33336;36.728;-4.414;2023-08-17T23:28:50;30.80;96.80
47618;DHT22;33336;36.728;-4.414;2023-08-17T23:33:52;30.60;96.40
47618;DHT22;33336;36.728;-4.414;2023-08-17T23:38:55;30.80;96.30
47618;DHT22;33336;36.728;-4.414;2023-08-17T23:44:00;30.90;96.40
47618;DHT22;33336;36.728;-4.414;2023-08-17T23:49:03;30.90;96.30
47618;DHT22;33336;36.728;-4.414;2023-08-17T23:54:07;30.90;96.10
47618;DHT22;33336;36.728;-4.414;2023-08-17T23:59:11;30.90;95.80
